TimeCST,TemperatureF,Dew PointF,Humidity,Sea Level PressureIn,VisibilityMPH,Wind Direction,Wind SpeedMPH,Gust SpeedMPH,PrecipitationIn,Events,Conditions,WindDirDegrees,DateUTC
12:13 AM,30.2,26.6,86,30.20,10.0,Calm,Calm,-,N/A,,Overcast,0,2012-11-14 06:13:00
12:34 AM,30.2,26.6,86,30.20,10.0,Calm,Calm,-,N/A,,Overcast,0,2012-11-14 06:34:00
12:54 AM,32.0,26.6,80,30.20,10.0,Calm,Calm,-,N/A,,Overcast,0,2012-11-14 06:54:00
1:13 AM,30.2,26.6,86,30.20,10.0,Calm,Calm,-,N/A,,Overcast,0,2012-11-14 07:13:00
1:33 AM,30.2,28.4,93,30.20,10.0,Calm,Calm,-,N/A,,Overcast,0,2012-11-14 07:33:00
1:54 AM,30.2,28.4,93,30.20,10.0,Calm,Calm,-,N/A,,Overcast,0,2012-11-14 07:54:00
2:13 AM,30.2,28.4,93,30.20,10.0,SSE,4.6,-,N/A,,Overcast,160,2012-11-14 08:13:00
2:33 AM,30.2,26.6,86,30.20,10.0,Calm,Calm,-,N/A,,Mostly Cloudy,0,2012-11-14 08:33:00
2:53 AM,28.4,26.6,93,30.21,10.0,Calm,Calm,-,N/A,,Mostly Cloudy,0,2012-11-14 08:53:00
3:13 AM,28.4,26.6,93,30.21,10.0,Calm,Calm,-,N/A,,Overcast,0,2012-11-14 09:13:00
3:34 AM,30.2,28.4,93,30.21,10.0,Calm,Calm,-,N/A,,Overcast,0,2012-11-14 09:34:00
3:53 AM,30.2,28.4,93,30.20,10.0,Calm,Calm,-,N/A,,Overcast,0,2012-11-14 09:53:00
4:14 AM,30.2,26.6,86,30.20,10.0,Calm,Calm,-,N/A,,Overcast,0,2012-11-14 10:14:00
4:34 AM,30.2,26.6,86,30.20,10.0,Calm,Calm,-,N/A,,Overcast,0,2012-11-14 10:34:00
5:13 AM,30.2,28.4,93,30.19,10.0,Calm,Calm,-,N/A,,Overcast,0,2012-11-14 11:13:00
5:34 AM,30.2,28.4,93,30.20,10.0,Calm,Calm,-,N/A,,Overcast,0,2012-11-14 11:34:00
5:53 AM,30.2,28.4,93,30.20,10.0,Calm,Calm,-,N/A,,Overcast,0,2012-11-14 11:53:00
6:13 AM,30.2,28.4,93,30.19,10.0,Calm,Calm,-,N/A,,Overcast,0,2012-11-14 12:13:00
6:33 AM,30.2,26.6,86,30.18,10.0,Calm,Calm,-,N/A,,Scattered Clouds,0,2012-11-14 12:33:00
6:54 AM,28.4,26.6,93,30.19,10.0,Calm,Calm,-,N/A,,Clear,0,2012-11-14 12:54:00
7:13 AM,28.4,26.6,93,30.19,10.0,SSE,3.5,-,N/A,,Clear,160,2012-11-14 13:13:00
7:33 AM,28.4,26.6,93,30.18,10.0,SSE,4.6,-,N/A,,Clear,160,2012-11-14 13:33:00
7:54 AM,28.4,26.6,93,30.19,10.0,South,3.5,-,N/A,,Clear,180,2012-11-14 13:54:00
8:13 AM,28.4,26.6,93,30.19,10.0,Calm,Calm,-,N/A,,Clear,0,2012-11-14 14:13:00
8:33 AM,28.4,26.6,93,30.19,10.0,Calm,Calm,-,N/A,,Clear,0,2012-11-14 14:33:00
8:53 AM,30.2,28.4,93,30.19,10.0,Calm,Calm,-,N/A,,Clear,0,2012-11-14 14:53:00
9:13 AM,30.2,28.4,93,30.19,10.0,Calm,Calm,-,N/A,,Clear,0,2012-11-14 15:13:00
9:33 AM,33.8,28.4,81,30.19,10.0,Calm,Calm,-,N/A,,Clear,0,2012-11-14 15:33:00
9:53 AM,35.6,28.4,75,30.19,10.0,Calm,Calm,-,N/A,,Clear,0,2012-11-14 15:53:00
10:14 AM,37.4,28.4,70,30.19,10.0,Calm,Calm,-,N/A,,Clear,0,2012-11-14 16:14:00
10:34 AM,39.2,26.6,61,30.19,10.0,Calm,Calm,-,N/A,,Clear,0,2012-11-14 16:34:00
10:53 AM,39.2,26.6,61,30.18,10.0,Calm,Calm,-,N/A,,Clear,0,2012-11-14 16:53:00
11:13 AM,41.0,26.6,57,30.18,10.0,South,5.8,-,N/A,,Clear,190,2012-11-14 17:13:00
11:34 AM,42.8,26.6,53,30.17,10.0,South,6.9,-,N/A,,Clear,170,2012-11-14 17:34:00
11:53 AM,42.8,26.6,53,30.16,10.0,South,8.1,-,N/A,,Clear,190,2012-11-14 17:53:00
12:13 PM,42.8,28.4,57,30.16,10.0,South,5.8,-,N/A,,Clear,190,2012-11-14 18:13:00
12:34 PM,44.6,28.4,53,30.15,10.0,South,5.8,-,N/A,,Clear,190,2012-11-14 18:34:00
12:53 PM,44.6,28.4,53,30.15,10.0,Calm,Calm,-,N/A,,Clear,0,2012-11-14 18:53:00
1:13 PM,44.6,28.4,53,30.14,10.0,South,8.1,-,N/A,,Clear,190,2012-11-14 19:13:00
1:34 PM,44.6,28.4,53,30.14,10.0,Calm,Calm,-,N/A,,Clear,0,2012-11-14 19:34:00
1:53 PM,46.4,28.4,50,30.13,10.0,Calm,Calm,-,N/A,,Clear,0,2012-11-14 19:53:00
2:13 PM,46.4,28.4,50,30.13,10.0,South,9.2,-,N/A,,Clear,190,2012-11-14 20:13:00
2:34 PM,46.4,30.2,53,30.13,10.0,South,3.5,-,N/A,,Clear,190,2012-11-14 20:34:00
2:53 PM,46.4,30.2,53,30.12,10.0,SSW,6.9,-,N/A,,Clear,210,2012-11-14 20:53:00
3:13 PM,46.4,30.2,53,30.12,10.0,South,9.2,-,N/A,,Clear,180,2012-11-14 21:13:00
3:34 PM,44.6,30.2,57,30.12,10.0,South,6.9,-,N/A,,Clear,190,2012-11-14 21:34:00
3:53 PM,44.6,30.2,57,30.12,10.0,South,9.2,-,N/A,,Clear,190,2012-11-14 21:53:00
4:13 PM,42.8,30.2,61,30.11,10.0,South,8.1,-,N/A,,Clear,180,2012-11-14 22:13:00
4:34 PM,42.8,30.2,61,30.11,10.0,South,8.1,-,N/A,,Clear,180,2012-11-14 22:34:00
4:53 PM,39.2,30.2,70,30.11,10.0,South,5.8,-,N/A,,Clear,180,2012-11-14 22:53:00
5:13 PM,37.4,30.2,75,30.11,10.0,South,3.5,-,N/A,,Clear,170,2012-11-14 23:13:00
5:34 PM,37.4,30.2,75,30.10,10.0,South,5.8,-,N/A,,Clear,170,2012-11-14 23:34:00
5:53 PM,35.6,30.2,81,30.10,10.0,South,4.6,-,N/A,,Clear,170,2012-11-14 23:53:00
6:14 PM,37.4,30.2,75,30.10,10.0,SSE,3.5,-,N/A,,Clear,160,2012-11-15 00:14:00
6:33 PM,35.6,28.4,75,30.10,10.0,SSE,4.6,-,N/A,,Clear,160,2012-11-15 00:33:00
6:53 PM,35.6,28.4,75,30.10,10.0,SSE,5.8,-,N/A,,Clear,160,2012-11-15 00:53:00
7:14 PM,35.6,28.4,75,30.10,10.0,SSE,4.6,-,N/A,,Clear,160,2012-11-15 01:14:00
7:33 PM,35.6,28.4,75,30.10,10.0,South,5.8,-,N/A,,Clear,170,2012-11-15 01:33:00
7:53 PM,33.8,28.4,81,30.09,10.0,South,5.8,-,N/A,,Clear,170,2012-11-15 01:53:00
8:33 PM,32.0,28.4,87,30.09,10.0,South,5.8,-,N/A,,Clear,180,2012-11-15 02:33:00
8:53 PM,32.0,28.4,87,30.09,10.0,South,4.6,-,N/A,,Clear,170,2012-11-15 02:53:00
9:13 PM,33.8,28.4,81,30.09,10.0,South,4.6,-,N/A,,Clear,170,2012-11-15 03:13:00
9:34 PM,32.0,28.4,87,30.09,10.0,South,6.9,-,N/A,,Clear,170,2012-11-15 03:34:00
9:53 PM,33.8,28.4,81,30.09,10.0,South,6.9,-,N/A,,Clear,180,2012-11-15 03:53:00
10:13 PM,33.8,30.2,87,30.08,10.0,South,8.1,-,N/A,,Clear,180,2012-11-15 04:13:00
10:34 PM,32.0,28.4,87,30.08,10.0,South,5.8,-,N/A,,Clear,180,2012-11-15 04:34:00
10:53 PM,30.2,28.4,93,30.08,10.0,South,4.6,-,N/A,,Scattered Clouds,180,2012-11-15 04:53:00
11:02 PM,30.2,28.4,93,30.07,10.0,South,5.8,-,N/A,,Mostly Cloudy,180,2012-11-15 05:02:00
11:36 PM,32.0,30.2,93,30.06,10.0,South,6.9,-,N/A,,Overcast,170,2012-11-15 05:36:00
11:53 PM,33.8,30.2,87,30.06,10.0,South,8.1,-,N/A,,Overcast,170,2012-11-15 05:53:00